createdAt,value
2022-12-31T00:01:44.716Z,100.00
2022-12-31T00:04:13.449Z,100.00
2022-12-31T00:06:42.227Z,100.00
2022-12-31T00:09:14.144Z,100.00
2022-12-31T00:11:48.469Z,100.00
2022-12-31T00:14:17.459Z,100.00
2022-12-31T00:16:45.885Z,100.00
2022-12-31T00:19:14.571Z,100.00
2022-12-31T00:21:44.949Z,100.00
2022-12-31T00:24:14.064Z,100.00
2022-12-31T00:26:44.065Z,100.00
2022-12-31T00:29:12.753Z,100.00
2022-12-31T00:31:41.843Z,100.00
2022-12-31T00:34:12.064Z,100.00
2022-12-31T00:36:42.612Z,100.00
2022-12-31T00:39:21.195Z,100.00
2022-12-31T00:41:51.186Z,100.00
2022-12-31T00:44:20.644Z,100.00
2022-12-31T00:46:49.479Z,100.00
2022-12-31T00:49:18.399Z,100.00
2022-12-31T00:51:47.503Z,100.00
2022-12-31T00:54:18.652Z,100.00
2022-12-31T00:56:51.541Z,100.00
2022-12-31T00:59:21.542Z,100.00
2022-12-31T01:01:53.104Z,100.00
2022-12-31T01:04:24.257Z,100.00
2022-12-31T01:06:52.903Z,100.00
2022-12-31T01:09:22.301Z,100.00
2022-12-31T01:11:52.821Z,100.00
2022-12-31T01:14:22.870Z,100.00
2022-12-31T01:16:54.059Z,100.00
2022-12-31T01:19:29.438Z,100.00
2022-12-31T01:22:01.006Z,100.00
2022-12-31T01:24:29.576Z,100.00
2022-12-31T01:26:58.643Z,100.00
2022-12-31T01:29:35.114Z,100.00
2022-12-31T01:32:03.630Z,100.00
2022-12-31T01:34:33.443Z,100.00
2022-12-31T01:37:02.528Z,100.00
2022-12-31T01:39:33.504Z,100.00
2022-12-31T01:42:03.884Z,100.00
2022-12-31T01:44:56.700Z,100.00
2022-12-31T01:47:40.971Z,100.00
2022-12-31T01:50:17.254Z,100.00
2022-12-31T01:52:51.220Z,100.00
2022-12-31T01:55:28.402Z,100.00
2022-12-31T01:58:06.365Z,100.00
2022-12-31T02:00:40.129Z,100.00
2022-12-31T02:03:11.250Z,100.00
2022-12-31T02:05:49.103Z,100.00
2022-12-31T02:08:18.870Z,100.00
2022-12-31T02:10:47.455Z,100.00
2022-12-31T02:13:18.259Z,100.00
2022-12-31T02:16:00.635Z,100.00
2022-12-31T02:18:44.456Z,100.00
2022-12-31T02:21:52.297Z,100.00
2022-12-31T02:25:25.970Z,100.00
2022-12-31T02:28:11.452Z,100.00
2022-12-31T02:30:50.065Z,100.00
2022-12-31T02:33:25.515Z,100.00
2022-12-31T02:36:07.259Z,100.00
2022-12-31T02:38:41.687Z,100.00
2022-12-31T02:41:35.009Z,100.00
2022-12-31T02:44:04.505Z,100.00
2022-12-31T02:46:52.876Z,100.00
2022-12-31T02:49:38.194Z,100.00
2022-12-31T02:52:19.478Z,100.00
2022-12-31T02:55:00.108Z,100.00
2022-12-31T02:57:38.782Z,100.00
2022-12-31T03:00:29.071Z,100.00
2022-12-31T03:03:04.205Z,100.00
2022-12-31T03:05:42.394Z,100.00
2022-12-31T03:08:13.297Z,100.00
2022-12-31T03:10:44.836Z,100.00
2022-12-31T03:13:14.423Z,100.00
2022-12-31T03:15:43.576Z,100.00
2022-12-31T03:18:39.210Z,100.00
2022-12-31T03:21:32.227Z,100.00
2022-12-31T03:24:18.273Z,100.00
2022-12-31T03:26:47.242Z,100.00
2022-12-31T03:29:16.955Z,100.00
2022-12-31T03:31:46.007Z,100.00
2022-12-31T03:34:17.447Z,100.00
2022-12-31T03:36:46.569Z,100.00
2022-12-31T03:39:16.975Z,100.00
2022-12-31T03:41:45.845Z,100.00
2022-12-31T03:44:14.336Z,100.00
2022-12-31T03:46:43.206Z,100.00
2022-12-31T03:49:12.214Z,100.00
2022-12-31T03:51:45.730Z,100.00
2022-12-31T03:54:14.245Z,100.00
2022-12-31T03:56:42.995Z,100.00
2022-12-31T03:59:15.214Z,100.00
2022-12-31T04:01:45.730Z,100.00
2022-12-31T04:04:14.651Z,100.00
2022-12-31T04:06:47.176Z,100.00
2022-12-31T04:09:15.982Z,100.00
2022-12-31T04:11:44.666Z,100.00
2022-12-31T04:14:13.280Z,100.00
2022-12-31T04:16:43.970Z,100.00
2022-12-31T04:19:13.405Z,100.00
2022-12-31T04:21:43.321Z,100.00
2022-12-31T04:24:11.908Z,100.00
2022-12-31T04:26:40.815Z,100.00
2022-12-31T04:29:09.303Z,100.00
2022-12-31T04:31:38.087Z,100.00
2022-12-31T04:34:06.707Z,100.00
2022-12-31T04:36:35.556Z,100.00
2022-12-31T04:39:05.679Z,100.00
2022-12-31T04:41:34.512Z,100.00
2022-12-31T04:44:03.638Z,100.00
2022-12-31T04:46:34.659Z,100.00
2022-12-31T04:49:08.153Z,100.00
2022-12-31T04:51:37.680Z,100.00
2022-12-31T04:54:08.140Z,100.00
2022-12-31T04:56:37.135Z,100.00
2022-12-31T04:59:07.262Z,100.00
2022-12-31T05:01:39.601Z,100.00
2022-12-31T05:04:08.210Z,100.00
2022-12-31T05:06:39.480Z,100.00
2022-12-31T05:09:09.477Z,100.00
2022-12-31T05:11:43.950Z,100.00
2022-12-31T05:14:13.032Z,100.00
2022-12-31T05:16:41.569Z,100.00
2022-12-31T05:19:13.154Z,100.00
2022-12-31T05:21:41.683Z,100.00
2022-12-31T05:24:11.743Z,100.00
2022-12-31T05:26:46.163Z,100.00
2022-12-31T05:29:14.877Z,100.00
2022-12-31T05:31:45.650Z,100.00
2022-12-31T05:34:14.204Z,100.00
2022-12-31T05:36:42.618Z,100.00
2022-12-31T05:39:12.520Z,100.00
2022-12-31T05:41:41.097Z,100.00
2022-12-31T05:44:09.552Z,100.00
2022-12-31T05:46:38.608Z,100.00
2022-12-31T05:49:10.377Z,100.00
2022-12-31T05:51:39.367Z,100.00
2022-12-31T05:54:08.237Z,100.00
2022-12-31T05:56:39.869Z,100.00
2022-12-31T05:59:08.412Z,100.00
2022-12-31T06:01:39.202Z,100.00
2022-12-31T06:04:07.743Z,100.00
2022-12-31T06:06:40.437Z,100.00
2022-12-31T06:09:09.133Z,100.00
2022-12-31T06:11:39.357Z,100.00
2022-12-31T06:14:08.159Z,100.00
2022-12-31T06:16:39.508Z,100.00
2022-12-31T06:19:08.307Z,100.00
2022-12-31T06:21:39.542Z,100.00
2022-12-31T06:24:09.721Z,100.00
2022-12-31T06:26:40.983Z,100.00
2022-12-31T06:29:15.471Z,100.00
2022-12-31T06:31:44.023Z,100.00
2022-12-31T06:34:13.666Z,100.00
2022-12-31T06:36:44.975Z,100.00
2022-12-31T06:39:13.506Z,100.00
2022-12-31T06:41:43.409Z,100.00
2022-12-31T06:44:12.003Z,100.00
2022-12-31T06:46:40.504Z,100.00
2022-12-31T06:49:08.950Z,100.00
2022-12-31T06:51:40.578Z,100.00
2022-12-31T06:54:09.161Z,100.00
2022-12-31T06:56:40.539Z,100.00
2022-12-31T06:59:30.227Z,100.00
2022-12-31T07:02:27.245Z,100.00
2022-12-31T07:05:23.049Z,100.00
2022-12-31T07:08:07.120Z,100.00
2022-12-31T07:10:51.900Z,100.00
2022-12-31T07:13:57.561Z,100.00
2022-12-31T07:16:41.084Z,100.00
2022-12-31T07:19:26.261Z,100.00
2022-12-31T07:21:57.898Z,100.00
2022-12-31T07:24:27.932Z,100.00
2022-12-31T07:27:21.873Z,100.00
2022-12-31T07:30:05.856Z,100.00
2022-12-31T07:32:59.507Z,100.00
2022-12-31T07:35:48.296Z,100.00
2022-12-31T07:38:31.197Z,100.00
2022-12-31T07:41:13.666Z,100.00
2022-12-31T07:43:58.304Z,100.00
2022-12-31T07:46:41.415Z,100.00
2022-12-31T07:49:15.151Z,100.00
2022-12-31T07:51:44.508Z,100.00
2022-12-31T07:54:14.416Z,100.00
2022-12-31T07:56:44.217Z,100.00
2022-12-31T07:59:32.233Z,100.00
2022-12-31T08:02:12.137Z,100.00
2022-12-31T08:05:01.548Z,100.00
2022-12-31T08:07:43.976Z,100.00
2022-12-31T08:10:23.829Z,100.00
2022-12-31T08:12:57.300Z,100.00
2022-12-31T08:15:30.369Z,100.00
2022-12-31T08:18:13.568Z,100.00
2022-12-31T08:21:29.529Z,100.00
2022-12-31T08:24:10.427Z,100.00
2022-12-31T08:27:05.146Z,100.00
2022-12-31T08:29:47.374Z,100.00
2022-12-31T08:32:26.610Z,100.00
2022-12-31T08:35:09.910Z,100.00
2022-12-31T08:37:45.961Z,100.00
2022-12-31T08:40:27.553Z,100.00
2022-12-31T08:43:34.315Z,100.00
2022-12-31T08:46:20.906Z,100.00
2022-12-31T08:48:52.668Z,100.00
2022-12-31T08:51:26.662Z,100.00
2022-12-31T08:54:00.379Z,100.00
2022-12-31T08:56:34.091Z,100.00
2022-12-31T08:59:39.614Z,100.00
2022-12-31T09:02:54.522Z,100.00
2022-12-31T09:05:30.832Z,100.00
2022-12-31T09:08:17.064Z,100.00
2022-12-31T09:11:00.546Z,100.00
2022-12-31T09:14:01.530Z,100.00
2022-12-31T09:16:44.694Z,100.00
2022-12-31T09:19:15.442Z,100.00
2022-12-31T09:21:45.428Z,100.00
2022-12-31T09:24:16.722Z,100.00
2022-12-31T09:27:03.165Z,100.00
2022-12-31T09:29:50.687Z,100.00
2022-12-31T09:32:31.341Z,100.00
2022-12-31T09:35:13.704Z,100.00
2022-12-31T09:37:50.353Z,100.00
2022-12-31T09:40:52.009Z,100.00
2022-12-31T09:44:16.615Z,100.00
2022-12-31T09:47:35.590Z,100.00
2022-12-31T09:50:29.909Z,100.00
2022-12-31T09:53:36.995Z,100.00
2022-12-31T09:56:15.866Z,100.00
2022-12-31T09:58:57.702Z,100.00
2022-12-31T10:01:49.722Z,100.00
2022-12-31T10:04:59.354Z,100.00
2022-12-31T10:07:53.422Z,100.00
2022-12-31T10:10:35.273Z,100.00
2022-12-31T10:13:33.238Z,98.88
2022-12-31T10:16:26.362Z,97.55
2022-12-31T10:19:48.652Z,96.96
2022-12-31T10:23:12.938Z,97.17
2022-12-31T10:26:03.057Z,96.88
2022-12-31T10:28:46.371Z,97.42
2022-12-31T10:31:19.939Z,97.50
2022-12-31T10:34:14.787Z,97.66
2022-12-31T10:37:11.904Z,97.62
2022-12-31T10:39:55.462Z,96.39
2022-12-31T10:43:19.376Z,96.25
2022-12-31T10:46:43.269Z,96.60
2022-12-31T10:50:09.512Z,97.07
2022-12-31T10:53:31.269Z,97.31
2022-12-31T10:56:50.997Z,97.57
2022-12-31T11:00:05.958Z,98.43
2022-12-31T11:03:39.898Z,98.45
2022-12-31T11:07:00.644Z,97.91
2022-12-31T11:10:50.127Z,97.04
2022-12-31T11:14:06.218Z,95.87
2022-12-31T11:17:03.636Z,94.96
2022-12-31T11:19:47.836Z,94.96
2022-12-31T11:22:44.664Z,94.98
2022-12-31T11:25:35.214Z,95.22
2022-12-31T11:28:51.753Z,94.37
2022-12-31T11:31:49.943Z,94.69
2022-12-31T11:34:50.383Z,94.89
2022-12-31T11:37:36.231Z,95.35
2022-12-31T11:40:42.005Z,95.63
2022-12-31T11:43:25.293Z,95.78
2022-12-31T11:46:15.519Z,95.45
2022-12-31T11:49:04.297Z,95.58
2022-12-31T11:51:53.312Z,95.47
2022-12-31T11:54:58.699Z,95.88
2022-12-31T11:57:35.616Z,95.56
2022-12-31T12:00:16.736Z,95.08
2022-12-31T12:02:50.065Z,94.66
2022-12-31T12:05:23.182Z,94.70
2022-12-31T12:07:53.298Z,92.62
2022-12-31T12:10:35.317Z,92.10
2022-12-31T12:13:17.725Z,93.86
2022-12-31T12:15:50.374Z,94.54
2022-12-31T12:18:40.937Z,95.49
2022-12-31T12:21:14.567Z,95.37
2022-12-31T12:23:55.477Z,96.06
2022-12-31T12:26:35.972Z,95.74
2022-12-31T12:29:13.429Z,95.84
2022-12-31T12:31:42.691Z,95.57
2022-12-31T12:34:25.846Z,95.88
2022-12-31T12:36:54.513Z,95.47
2022-12-31T12:39:26.378Z,96.09
2022-12-31T12:42:06.344Z,96.27
2022-12-31T12:44:35.904Z,96.04
2022-12-31T12:47:08.208Z,96.03
2022-12-31T12:49:42.714Z,94.38
2022-12-31T12:52:53.767Z,93.37
2022-12-31T12:55:37.880Z,93.67
2022-12-31T12:58:25.778Z,93.70
2022-12-31T13:01:06.453Z,93.84
2022-12-31T13:04:33.408Z,93.09
2022-12-31T13:07:18.189Z,93.00
2022-12-31T13:10:24.646Z,92.78
2022-12-31T13:13:25.705Z,92.60
2022-12-31T13:16:06.939Z,92.81
2022-12-31T13:18:53.511Z,92.83
2022-12-31T13:21:42.750Z,92.26
2022-12-31T13:24:32.433Z,92.16
2022-12-31T13:27:20.448Z,92.44
2022-12-31T13:29:51.229Z,92.43
2022-12-31T13:32:36.326Z,92.35
2022-12-31T13:35:26.287Z,92.69
2022-12-31T13:38:05.780Z,92.44
2022-12-31T13:40:48.934Z,92.27
2022-12-31T13:43:24.996Z,92.40
2022-12-31T13:46:07.163Z,91.78
2022-12-31T13:48:49.550Z,91.84
2022-12-31T13:51:28.144Z,91.65
2022-12-31T13:54:05.315Z,92.04
2022-12-31T13:56:40.015Z,92.57
2022-12-31T13:59:20.349Z,92.61
2022-12-31T14:01:56.192Z,92.57
2022-12-31T14:04:38.975Z,93.25
2022-12-31T14:07:16.563Z,94.02
2022-12-31T14:09:46.716Z,95.23
2022-12-31T14:12:33.265Z,96.49
2022-12-31T14:15:18.176Z,96.76
2022-12-31T14:17:57.001Z,96.70
2022-12-31T14:20:42.735Z,97.51
2022-12-31T14:23:21.348Z,98.42
2022-12-31T14:25:56.100Z,99.26
2022-12-31T14:28:32.791Z,99.79
2022-12-31T14:31:29.950Z,100.00
2022-12-31T14:34:09.607Z,100.00
2022-12-31T14:36:58.063Z,100.00
2022-12-31T14:39:46.360Z,100.00
2022-12-31T14:42:31.998Z,100.00
2022-12-31T14:45:22.060Z,100.00
2022-12-31T14:47:59.365Z,100.00
2022-12-31T14:50:30.793Z,100.00
2022-12-31T14:53:18.792Z,100.00
2022-12-31T14:55:59.399Z,100.00
2022-12-31T14:58:35.222Z,100.00
2022-12-31T15:01:08.877Z,100.00
2022-12-31T15:03:45.684Z,100.00
2022-12-31T15:06:49.125Z,100.00
2022-12-31T15:09:44.728Z,100.00
2022-12-31T15:12:44.275Z,100.00
2022-12-31T15:15:41.966Z,100.00
2022-12-31T15:18:38.398Z,100.00
2022-12-31T15:21:48.023Z,100.00
2022-12-31T15:24:24.073Z,100.00
2022-12-31T15:26:56.375Z,100.00
2022-12-31T15:29:39.982Z,100.00
2022-12-31T15:32:20.063Z,100.00
2022-12-31T15:34:48.908Z,100.00
2022-12-31T15:37:33.121Z,100.00
2022-12-31T15:40:24.993Z,100.00
2022-12-31T15:42:59.304Z,100.00
2022-12-31T15:45:36.696Z,100.00
2022-12-31T15:48:16.677Z,100.00
2022-12-31T15:50:47.365Z,100.00
2022-12-31T15:53:30.378Z,100.00
2022-12-31T15:56:03.098Z,100.00
2022-12-31T15:58:35.898Z,100.00
2022-12-31T16:01:14.888Z,100.00
2022-12-31T16:03:48.082Z,100.00
2022-12-31T16:06:18.482Z,100.00
2022-12-31T16:08:50.218Z,100.00
2022-12-31T16:11:20.376Z,100.00
2022-12-31T16:13:54.825Z,100.00
2022-12-31T16:16:26.647Z,100.00
2022-12-31T16:18:56.230Z,100.00
2022-12-31T16:21:36.870Z,100.00
2022-12-31T16:24:29.274Z,100.00
2022-12-31T16:27:04.097Z,100.00
2022-12-31T16:29:35.204Z,100.00
2022-12-31T16:32:13.223Z,100.00
2022-12-31T16:34:43.694Z,100.00
2022-12-31T16:37:18.721Z,100.00
2022-12-31T16:40:19.127Z,100.00
2022-12-31T16:42:49.364Z,100.00
2022-12-31T16:45:33.080Z,100.00
2022-12-31T16:48:16.622Z,100.00
2022-12-31T16:50:50.214Z,100.00
2022-12-31T16:53:22.336Z,100.00
2022-12-31T16:55:58.227Z,100.00
2022-12-31T16:58:32.171Z,100.00
2022-12-31T17:01:14.653Z,100.00
2022-12-31T17:03:47.038Z,100.00
2022-12-31T17:06:18.691Z,100.00
2022-12-31T17:09:03.543Z,100.00
2022-12-31T17:11:39.252Z,100.00
2022-12-31T17:14:17.284Z,100.00
2022-12-31T17:17:07.022Z,100.00
2022-12-31T17:19:41.606Z,100.00
2022-12-31T17:22:24.098Z,100.00
2022-12-31T17:25:01.134Z,100.00
2022-12-31T17:27:30.549Z,100.00
2022-12-31T17:30:43.567Z,100.00
2022-12-31T17:33:32.043Z,100.00
2022-12-31T17:36:23.481Z,100.00
2022-12-31T17:38:52.580Z,100.00
2022-12-31T17:41:28.246Z,100.00
2022-12-31T17:43:58.712Z,100.00
2022-12-31T17:46:28.786Z,100.00
2022-12-31T17:49:03.538Z,100.00
2022-12-31T17:51:32.087Z,100.00
2022-12-31T17:54:02.200Z,100.00
2022-12-31T17:56:30.855Z,100.00
2022-12-31T17:59:00.665Z,100.00
2022-12-31T18:01:31.221Z,100.00
2022-12-31T18:04:00.369Z,100.00
2022-12-31T18:06:29.133Z,100.00
2022-12-31T18:08:57.630Z,100.00
2022-12-31T18:11:26.305Z,100.00
2022-12-31T18:13:55.520Z,100.00
2022-12-31T18:16:24.105Z,100.00
2022-12-31T18:18:54.136Z,100.00
2022-12-31T18:21:30.447Z,100.00
2022-12-31T18:26:28.301Z,100.00
2022-12-31T18:29:15.244Z,100.00
2022-12-31T18:31:47.356Z,100.00
2022-12-31T18:34:19.502Z,100.00
2022-12-31T18:36:48.539Z,100.00
2022-12-31T18:39:16.936Z,100.00
2022-12-31T18:41:49.852Z,100.00
2022-12-31T18:44:18.880Z,100.00
2022-12-31T18:46:47.584Z,100.00
2022-12-31T18:49:17.480Z,100.00
2022-12-31T18:51:46.252Z,100.00
2022-12-31T18:54:17.960Z,100.00
2022-12-31T18:56:49.198Z,100.00
2022-12-31T18:59:18.861Z,100.00
2022-12-31T19:01:47.344Z,100.00
2022-12-31T19:04:27.069Z,100.00
2022-12-31T19:06:57.174Z,100.00
2022-12-31T19:12:15.740Z,99.55
2022-12-31T19:14:45.527Z,100.00
2022-12-31T19:17:16.152Z,100.00
2022-12-31T19:19:46.161Z,100.00
2022-12-31T19:22:16.857Z,100.00
2022-12-31T19:24:45.540Z,100.00
2022-12-31T19:27:14.790Z,100.00
2022-12-31T19:29:44.091Z,100.00
2022-12-31T19:32:12.845Z,100.00
2022-12-31T19:34:41.362Z,100.00
2022-12-31T19:37:16.230Z,100.00
2022-12-31T19:39:45.018Z,100.00
2022-12-31T19:42:16.582Z,100.00
2022-12-31T19:44:45.062Z,100.00
2022-12-31T19:47:14.704Z,100.00
2022-12-31T19:49:43.294Z,100.00
2022-12-31T19:52:13.519Z,100.00
2022-12-31T19:54:42.203Z,100.00
2022-12-31T19:57:10.685Z,98.93
2022-12-31T19:59:39.229Z,98.53
2022-12-31T20:02:08.412Z,97.61
2022-12-31T20:04:37.003Z,97.35
2022-12-31T20:07:06.373Z,97.10
2022-12-31T20:09:36.297Z,96.71
2022-12-31T20:12:05.355Z,97.45
2022-12-31T20:14:34.003Z,97.34
2022-12-31T20:17:02.628Z,96.85
2022-12-31T20:19:31.923Z,96.81
2022-12-31T20:22:00.904Z,96.94
2022-12-31T20:24:29.352Z,96.34
2022-12-31T20:26:59.200Z,96.55
2022-12-31T20:29:30.657Z,95.95
2022-12-31T20:31:59.172Z,95.45
2022-12-31T20:34:27.804Z,96.34
2022-12-31T20:36:59.217Z,96.60
2022-12-31T20:39:27.683Z,96.61
2022-12-31T20:41:56.171Z,95.37
2022-12-31T20:44:26.153Z,95.62
2022-12-31T20:46:54.763Z,95.52
2022-12-31T20:49:44.294Z,95.04
2022-12-31T20:52:11.804Z,94.76
2022-12-31T20:54:40.284Z,94.38
2022-12-31T20:57:08.859Z,94.84
2022-12-31T20:59:39.288Z,95.12
2022-12-31T21:02:39.184Z,94.89
2022-12-31T21:04:57.051Z,95.05
2022-12-31T21:07:25.592Z,94.68
2022-12-31T21:09:54.121Z,94.41
2022-12-31T21:12:42.106Z,93.84
2022-12-31T21:15:13.604Z,94.07
2022-12-31T21:17:42.206Z,93.68
2022-12-31T21:20:12.171Z,91.83
2022-12-31T21:22:40.743Z,91.41
2022-12-31T21:25:11.617Z,91.31
2022-12-31T21:27:40.104Z,90.71
2022-12-31T21:30:18.779Z,90.92
2022-12-31T21:32:48.135Z,90.96
2022-12-31T21:35:42.647Z,90.74
2022-12-31T21:38:08.100Z,91.05
2022-12-31T21:40:36.692Z,91.18
2022-12-31T21:43:06.361Z,89.96
2022-12-31T21:45:36.298Z,89.87
2022-12-31T21:48:25.007Z,89.95
2022-12-31T21:50:55.996Z,88.92
2022-12-31T21:53:34.133Z,88.84
2022-12-31T21:56:14.648Z,89.07
2022-12-31T21:58:46.032Z,88.02
2022-12-31T22:01:40.554Z,87.64
2022-12-31T22:04:28.293Z,87.05
2022-12-31T22:06:57.840Z,86.54
2022-12-31T22:09:28.623Z,86.41
2022-12-31T22:11:57.168Z,86.74
2022-12-31T22:14:25.915Z,85.72
2022-12-31T22:16:55.958Z,85.07
2022-12-31T22:19:24.720Z,84.19
2022-12-31T22:21:53.086Z,84.13
2022-12-31T22:24:21.512Z,83.95
2022-12-31T22:26:51.157Z,83.24
2022-12-31T22:29:21.560Z,82.53
2022-12-31T22:31:50.227Z,81.16
2022-12-31T22:34:20.267Z,81.47
2022-12-31T22:36:48.731Z,81.12
2022-12-31T22:39:43.613Z,79.88
2022-12-31T22:42:06.223Z,79.82
2022-12-31T22:44:34.724Z,80.05
2022-12-31T22:47:03.274Z,79.68
2022-12-31T22:49:33.105Z,79.70
2022-12-31T22:52:05.651Z,78.75
2022-12-31T22:54:37.121Z,78.71
2022-12-31T22:57:06.018Z,78.22
2022-12-31T22:59:34.588Z,76.94
2022-12-31T23:02:02.984Z,77.36
2022-12-31T23:04:33.059Z,77.82
2022-12-31T23:07:01.555Z,76.10
2022-12-31T23:09:47.732Z,75.92
2022-12-31T23:12:16.300Z,74.98
2022-12-31T23:15:02.758Z,73.69
2022-12-31T23:17:49.182Z,72.92
2022-12-31T23:20:40.627Z,72.89
2022-12-31T23:23:15.056Z,73.60
2022-12-31T23:25:47.191Z,73.87
2022-12-31T23:28:19.659Z,72.88
2022-12-31T23:30:48.164Z,71.01
2022-12-31T23:33:19.307Z,69.97
2022-12-31T23:35:49.658Z,70.87
2022-12-31T23:38:19.482Z,69.71
2022-12-31T23:40:47.906Z,69.30
2022-12-31T23:43:22.716Z,69.61
2022-12-31T23:45:52.375Z,69.02
2022-12-31T23:48:21.350Z,66.94
2022-12-31T23:50:54.272Z,66.45
2022-12-31T23:53:23.551Z,66.58
2022-12-31T23:55:52.648Z,67.30
2022-12-31T23:58:21.473Z,67.42
